createdAt,value
2019-04-07T00:00:27.751Z,3.00
2019-04-07T00:02:56.842Z,3.27
2019-04-07T00:05:25.625Z,3.83
2019-04-07T00:07:54.243Z,2.90
2019-04-07T00:10:22.540Z,4.22
2019-04-07T00:12:50.938Z,3.70
2019-04-07T00:15:19.378Z,3.70
2019-04-07T00:17:47.739Z,3.47
2019-04-07T00:20:16.286Z,3.90
2019-04-07T00:22:44.583Z,4.23
2019-04-07T00:25:13.430Z,2.77
2019-04-07T00:27:41.781Z,4.13
2019-04-07T00:30:10.750Z,2.63
2019-04-07T00:32:39.098Z,3.40
2019-04-07T00:35:07.784Z,3.97
2019-04-07T00:37:36.325Z,4.53
2019-04-07T00:40:07.052Z,3.93
2019-04-07T00:42:35.406Z,4.47
2019-04-07T00:45:05.260Z,6.10
2019-04-07T00:47:33.955Z,5.90
2019-04-07T00:50:03.021Z,4.83
2019-04-07T00:52:31.409Z,5.40
2019-04-07T00:54:59.702Z,5.23
2019-04-07T00:57:28.585Z,4.77
2019-04-07T00:59:57.157Z,3.07
2019-04-07T01:02:26.025Z,2.83
2019-04-07T01:04:55.045Z,2.93
2019-04-07T01:07:23.591Z,3.73
2019-04-07T01:09:51.890Z,3.80
2019-04-07T01:12:20.419Z,3.53
2019-04-07T01:14:49.190Z,3.77
2019-04-07T01:17:17.894Z,3.13
2019-04-07T01:19:46.474Z,4.00
2019-04-07T01:22:15.442Z,4.10
2019-04-07T01:24:44.099Z,3.50
2019-04-07T01:27:12.452Z,4.60
2019-04-07T01:29:41.985Z,3.60
2019-04-07T01:32:10.351Z,4.40
2019-04-07T01:34:39.365Z,3.47
2019-04-07T01:37:07.744Z,3.90
2019-04-07T01:39:36.141Z,3.75
2019-04-07T01:42:09.176Z,3.90
2019-04-07T01:44:42.070Z,4.08
2019-04-07T01:47:17.786Z,4.20
2019-04-07T01:50:03.087Z,4.50
2019-04-07T01:52:33.734Z,3.67
2019-04-07T01:55:16.329Z,3.80
2019-04-07T01:57:49.261Z,5.00
2019-04-07T02:00:19.223Z,4.90
2019-04-07T02:02:49.416Z,4.20
2019-04-07T02:05:35.308Z,4.80
2019-04-07T02:08:14.524Z,4.83
2019-04-07T02:10:59.917Z,5.30
2019-04-07T02:13:39.288Z,5.73
2019-04-07T02:16:16.000Z,5.37
2019-04-07T02:19:03.671Z,5.73
2019-04-07T02:21:33.778Z,6.60
2019-04-07T02:24:19.204Z,5.73
2019-04-07T02:26:58.668Z,6.17
2019-04-07T02:29:44.826Z,5.23
2019-04-07T02:32:15.284Z,5.30
2019-04-07T02:34:49.103Z,6.00
2019-04-07T02:37:22.685Z,4.77
2019-04-07T02:39:52.792Z,5.60
2019-04-07T02:42:22.893Z,5.40
2019-04-07T02:45:11.145Z,5.70
2019-04-07T02:47:57.721Z,5.77
2019-04-07T02:50:40.026Z,6.60
2019-04-07T02:53:11.049Z,6.30
2019-04-07T02:55:42.020Z,6.00
2019-04-07T02:58:15.748Z,5.97
2019-04-07T03:00:48.887Z,6.83
2019-04-07T03:03:31.214Z,6.70
2019-04-07T03:06:01.958Z,6.35
2019-04-07T03:08:49.148Z,5.97
2019-04-07T03:11:20.134Z,6.90
2019-04-07T03:13:54.390Z,6.78
2019-04-07T03:16:39.539Z,6.30
2019-04-07T03:19:13.202Z,6.37
2019-04-07T03:21:46.846Z,6.77
2019-04-07T03:24:17.115Z,6.13
2019-04-07T03:27:04.015Z,6.90
2019-04-07T03:29:49.939Z,7.08
2019-04-07T03:32:27.560Z,5.27
2019-04-07T03:35:14.971Z,6.30
2019-04-07T03:37:47.198Z,6.83
2019-04-07T03:40:19.932Z,6.00
2019-04-07T03:42:51.163Z,6.67
2019-04-07T03:45:22.125Z,8.40
2019-04-07T03:47:55.119Z,7.27
2019-04-07T03:50:36.998Z,8.50
2019-04-07T03:53:24.297Z,7.65
2019-04-07T03:56:00.630Z,7.20
2019-04-07T03:58:39.786Z,8.13
2019-04-07T04:01:27.159Z,7.87
2019-04-07T04:04:07.436Z,8.48
2019-04-07T04:06:54.508Z,9.13
2019-04-07T04:09:37.081Z,8.00
2019-04-07T04:12:22.750Z,7.70
2019-04-07T04:15:09.101Z,8.27
2019-04-07T04:17:37.540Z,9.27
2019-04-07T04:20:07.106Z,9.77
2019-04-07T04:22:37.748Z,10.17
2019-04-07T04:25:08.498Z,12.40
2019-04-07T04:27:38.799Z,11.13
2019-04-07T04:30:10.471Z,10.00
2019-04-07T04:32:39.762Z,11.30
2019-04-07T04:35:08.550Z,12.60
2019-04-07T04:37:45.771Z,12.17
2019-04-07T04:40:07.767Z,11.03
2019-04-07T04:42:36.065Z,13.47
2019-04-07T04:45:06.831Z,12.17
2019-04-07T04:47:35.169Z,12.30
2019-04-07T04:50:06.670Z,10.10
2019-04-07T04:52:36.293Z,11.70
2019-04-07T04:55:05.618Z,9.43
2019-04-07T04:57:34.884Z,9.40
2019-04-07T05:00:06.217Z,10.63
2019-04-07T05:02:34.795Z,9.87
2019-04-07T05:05:06.312Z,10.78
2019-04-07T05:07:47.884Z,27.47
2019-04-07T05:10:05.705Z,25.20
2019-04-07T05:12:34.091Z,12.57
2019-04-07T05:15:02.399Z,11.00
2019-04-07T05:17:31.140Z,10.15
2019-04-07T05:20:00.200Z,9.97
2019-04-07T05:22:29.132Z,10.10
2019-04-07T05:24:57.882Z,9.90
2019-04-07T05:27:27.583Z,10.73
2019-04-07T05:29:56.711Z,10.63
2019-04-07T05:32:25.269Z,11.57
2019-04-07T05:34:53.559Z,9.55
2019-04-07T05:37:22.029Z,9.83
2019-04-07T05:39:50.387Z,10.33
2019-04-07T05:42:18.942Z,10.30
2019-04-07T05:44:47.612Z,10.30
2019-04-07T05:47:17.173Z,11.40
2019-04-07T05:49:45.500Z,11.90
2019-04-07T05:52:13.948Z,11.57
2019-04-07T05:54:42.872Z,10.80
2019-04-07T05:57:11.828Z,9.27
2019-04-07T05:59:42.211Z,10.60
2019-04-07T06:02:11.106Z,11.20
2019-04-07T06:04:40.379Z,10.00
2019-04-07T06:07:09.065Z,12.73
2019-04-07T06:09:37.441Z,10.60
2019-04-07T06:12:09.597Z,9.98
2019-04-07T06:14:36.787Z,9.60
2019-04-07T06:17:05.437Z,10.33
2019-04-07T06:19:37.384Z,9.37
2019-04-07T06:22:04.839Z,10.67
2019-04-07T06:24:35.091Z,10.10
2019-04-07T06:27:03.460Z,11.40
2019-04-07T06:29:31.780Z,11.53
2019-04-07T06:32:03.677Z,10.70
2019-04-07T06:34:30.492Z,10.18
2019-04-07T06:36:59.005Z,10.57
2019-04-07T06:39:27.692Z,10.28
2019-04-07T06:41:58.933Z,23.37
2019-04-07T06:44:26.404Z,11.50
2019-04-07T06:46:59.964Z,10.47
2019-04-07T06:49:29.479Z,10.90
2019-04-07T06:52:05.466Z,10.25
2019-04-07T06:54:41.475Z,10.77
2019-04-07T07:00:30.515Z,10.68
2019-04-07T07:03:04.345Z,11.13
2019-04-07T07:05:46.290Z,11.23
2019-04-07T07:08:42.477Z,11.73
2019-04-07T07:11:27.995Z,16.20
2019-04-07T07:14:06.202Z,15.23
2019-04-07T07:16:46.736Z,11.23
2019-04-07T07:19:35.101Z,9.90
2019-04-07T07:22:16.041Z,10.03
2019-04-07T07:24:46.763Z,9.97
2019-04-07T07:27:15.366Z,10.20
2019-04-07T07:29:45.986Z,12.57
2019-04-07T07:32:13.783Z,13.50
2019-04-07T07:34:43.288Z,15.63
2019-04-07T07:37:12.663Z,12.40
2019-04-07T07:39:42.649Z,11.50
2019-04-07T07:42:12.187Z,16.23
2019-04-07T07:44:40.573Z,12.93
2019-04-07T07:47:09.235Z,11.43
2019-04-07T07:49:40.328Z,11.23
2019-04-07T07:52:07.685Z,12.60
2019-04-07T07:54:36.784Z,10.13
2019-04-07T07:57:05.249Z,10.60
2019-04-07T07:59:38.037Z,10.50
2019-04-07T08:02:04.164Z,8.93
2019-04-07T08:04:32.536Z,9.83
2019-04-07T08:07:02.586Z,10.07
2019-04-07T08:09:31.718Z,10.63
2019-04-07T08:12:02.411Z,10.17
2019-04-07T08:14:30.415Z,10.77
2019-04-07T08:17:02.256Z,10.93
2019-04-07T08:19:30.514Z,10.50
2019-04-07T08:21:59.654Z,10.40
2019-04-07T08:24:28.299Z,10.07
2019-04-07T08:26:58.360Z,10.25
2019-04-07T08:29:27.028Z,10.00
2019-04-07T08:31:56.564Z,10.90
2019-04-07T08:34:25.523Z,10.87
2019-04-07T08:36:54.282Z,9.87
2019-04-07T08:39:25.595Z,9.40
2019-04-07T08:41:52.904Z,10.30
2019-04-07T08:44:21.592Z,9.93
2019-04-07T08:46:50.827Z,20.93
2019-04-07T08:49:23.610Z,10.65
2019-04-07T08:51:50.582Z,9.60
2019-04-07T08:54:19.112Z,10.37
2019-04-07T08:56:48.042Z,10.40
2019-04-07T08:59:17.316Z,11.60
2019-04-07T09:01:46.968Z,11.10
2019-04-07T09:04:17.522Z,10.77
2019-04-07T09:06:46.026Z,10.23
2019-04-07T09:09:15.692Z,11.28
2019-04-07T09:11:44.207Z,11.63
2019-04-07T09:14:14.660Z,11.87
2019-04-07T09:16:59.188Z,10.33
2019-04-07T09:19:34.962Z,9.83
2019-04-07T09:22:23.132Z,11.50
2019-04-07T09:24:56.721Z,11.00
2019-04-07T09:27:27.090Z,11.00
2019-04-07T09:30:10.057Z,11.63
2019-04-07T09:32:43.859Z,13.23
2019-04-07T09:35:22.883Z,12.00
2019-04-07T09:38:00.963Z,12.77
2019-04-07T09:40:48.666Z,16.10
2019-04-07T09:43:35.826Z,12.78
2019-04-07T09:46:10.359Z,11.57
2019-04-07T09:48:41.428Z,10.70
2019-04-07T09:51:17.661Z,12.80
2019-04-07T09:53:50.372Z,30.02
2019-04-07T09:56:27.195Z,12.07
2019-04-07T09:59:15.112Z,11.03
2019-04-07T10:01:46.282Z,12.30
2019-04-07T10:04:16.306Z,10.90
2019-04-07T10:06:58.196Z,11.53
2019-04-07T10:09:28.382Z,12.78
2019-04-07T10:12:08.096Z,14.60
2019-04-07T10:14:43.989Z,14.83
2019-04-07T10:17:19.616Z,13.77
2019-04-07T10:19:52.705Z,13.20
2019-04-07T10:22:39.569Z,13.73
2019-04-07T10:25:10.779Z,15.40
2019-04-07T10:27:40.881Z,12.90
2019-04-07T10:30:11.490Z,12.05
2019-04-07T10:32:41.776Z,12.77
2019-04-07T10:35:28.462Z,14.07
2019-04-07T10:37:58.377Z,11.67
2019-04-07T10:40:44.395Z,11.20
2019-04-07T10:43:31.345Z,11.03
2019-04-07T10:46:14.703Z,10.00
2019-04-07T10:48:45.669Z,9.83
2019-04-07T10:51:15.719Z,9.67
2019-04-07T10:54:02.553Z,11.00
2019-04-07T10:56:45.076Z,9.67
2019-04-07T10:59:30.918Z,10.45
2019-04-07T11:02:18.008Z,9.53
2019-04-07T11:05:00.664Z,9.50
2019-04-07T11:07:30.690Z,8.57
2019-04-07T11:10:01.218Z,8.27
2019-04-07T11:12:34.648Z,7.50
2019-04-07T11:15:08.177Z,10.67
2019-04-07T11:17:41.966Z,9.90
2019-04-07T11:20:17.975Z,8.33
2019-04-07T11:22:57.548Z,7.10
2019-04-07T11:25:37.111Z,9.00
2019-04-07T11:28:22.594Z,10.47
2019-04-07T11:31:02.219Z,9.90
2019-04-07T11:33:33.017Z,13.03
2019-04-07T11:36:11.706Z,9.47
2019-04-07T11:38:48.342Z,10.53
2019-04-07T11:41:23.584Z,9.87
2019-04-07T11:43:56.238Z,10.43
2019-04-07T11:46:43.208Z,10.33
2019-04-07T11:49:16.073Z,9.95
2019-04-07T11:51:46.739Z,10.27
2019-04-07T11:54:29.499Z,8.70
2019-04-07T11:57:02.286Z,9.50
2019-04-07T11:59:37.850Z,11.67
2019-04-07T12:02:19.835Z,11.10
2019-04-07T12:04:57.812Z,9.17
2019-04-07T12:07:45.899Z,9.50
2019-04-07T12:10:31.736Z,9.37
2019-04-07T12:13:08.031Z,7.70
2019-04-07T12:15:38.742Z,8.40
2019-04-07T12:18:11.721Z,9.10
2019-04-07T12:20:42.066Z,9.47
2019-04-07T12:23:15.916Z,7.40
2019-04-07T12:26:02.133Z,8.58
2019-04-07T12:28:31.417Z,8.50
2019-04-07T12:31:05.310Z,10.17
2019-04-07T12:33:44.724Z,9.80
2019-04-07T12:36:32.066Z,8.10
2019-04-07T12:39:02.879Z,8.07
2019-04-07T12:41:39.090Z,7.80
2019-04-07T12:44:17.765Z,9.00
2019-04-07T12:46:57.136Z,6.43
2019-04-07T12:49:27.101Z,7.23
2019-04-07T12:52:12.806Z,7.33
2019-04-07T12:54:59.371Z,6.42
2019-04-07T13:00:13.494Z,7.70
2019-04-07T13:02:51.661Z,8.10
2019-04-07T13:05:29.952Z,7.63
2019-04-07T13:08:06.050Z,9.30
2019-04-07T13:10:42.986Z,6.70
2019-04-07T13:16:07.971Z,9.07
2019-04-07T13:18:54.474Z,7.83
2019-04-07T13:21:25.053Z,6.57
2019-04-07T13:23:56.013Z,4.47
2019-04-07T13:26:38.903Z,9.17
2019-04-07T13:29:09.642Z,5.20
2019-04-07T13:31:42.892Z,5.27
2019-04-07T13:34:18.916Z,4.97
2019-04-07T13:36:51.659Z,4.50
2019-04-07T13:39:21.251Z,4.20
2019-04-07T13:41:55.741Z,3.58
2019-04-07T13:44:45.560Z,5.30
2019-04-07T13:47:23.155Z,5.53
2019-04-07T13:49:57.319Z,4.07
2019-04-07T13:52:25.385Z,4.87
2019-04-07T13:54:55.843Z,3.42
2019-04-07T13:57:44.024Z,4.30
2019-04-07T14:00:29.512Z,4.47
2019-04-07T14:03:21.091Z,4.75
2019-04-07T14:06:06.870Z,5.40
2019-04-07T14:08:37.169Z,5.70
2019-04-07T14:11:22.018Z,6.20
2019-04-07T14:14:01.314Z,5.00
2019-04-07T14:16:34.667Z,6.97
2019-04-07T14:19:14.654Z,4.80
2019-04-07T14:22:00.516Z,4.30
2019-04-07T14:24:46.117Z,4.30
2019-04-07T14:27:25.217Z,6.17
2019-04-07T14:29:55.973Z,6.03
2019-04-07T14:32:26.266Z,4.90
2019-04-07T14:35:02.336Z,4.13
2019-04-07T14:37:32.957Z,4.27
2019-04-07T14:40:03.782Z,4.27
2019-04-07T14:42:35.040Z,3.67
2019-04-07T14:45:09.460Z,4.20
2019-04-07T14:47:43.605Z,3.80
2019-04-07T14:50:14.524Z,3.33
2019-04-07T14:52:44.811Z,4.10
2019-04-07T14:55:20.734Z,4.10
2019-04-07T14:57:53.648Z,4.40
2019-04-07T15:00:28.047Z,3.87
2019-04-07T15:02:56.603Z,3.73
2019-04-07T15:05:26.618Z,4.60
2019-04-07T15:08:15.221Z,3.93
2019-04-07T15:10:48.420Z,3.93
2019-04-07T15:13:19.259Z,3.30
2019-04-07T15:15:51.049Z,3.55
2019-04-07T15:18:18.750Z,4.13
2019-04-07T15:20:47.324Z,3.40
2019-04-07T15:23:16.533Z,4.00
2019-04-07T15:25:47.022Z,3.67
2019-04-07T15:28:15.478Z,3.60
2019-04-07T15:30:47.888Z,3.47
2019-04-07T15:33:13.784Z,3.70
2019-04-07T15:35:45.076Z,4.10
2019-04-07T15:38:12.126Z,4.40
2019-04-07T15:40:40.778Z,3.57
2019-04-07T15:43:11.274Z,3.67
2019-04-07T15:45:39.692Z,3.17
2019-04-07T15:48:09.223Z,3.47
2019-04-07T15:50:38.180Z,4.03
2019-04-07T15:53:07.256Z,3.60
2019-04-07T15:55:46.420Z,3.67
2019-04-07T15:58:05.788Z,8.30
2019-04-07T16:00:35.282Z,3.30
2019-04-07T16:03:04.305Z,6.30
2019-04-07T16:05:39.145Z,4.00
2019-04-07T16:08:02.946Z,3.47
2019-04-07T16:10:31.368Z,3.50
2019-04-07T16:12:59.950Z,3.97
2019-04-07T16:15:28.268Z,4.20
2019-04-07T16:17:58.805Z,4.67
2019-04-07T16:20:32.306Z,4.00
2019-04-07T16:22:57.589Z,3.50
2019-04-07T16:25:27.897Z,4.03
2019-04-07T16:27:56.615Z,3.63
2019-04-07T16:30:25.877Z,4.23
2019-04-07T16:32:54.786Z,3.70
2019-04-07T16:35:23.191Z,3.30
2019-04-07T16:37:52.089Z,4.40
2019-04-07T16:40:20.653Z,4.00
2019-04-07T16:43:04.440Z,5.30
2019-04-07T16:45:19.414Z,5.47
2019-04-07T16:47:47.895Z,5.07
2019-04-07T16:50:18.977Z,5.22
2019-04-07T16:52:47.139Z,4.20
2019-04-07T16:55:37.235Z,4.77
2019-04-07T16:58:07.345Z,3.77
2019-04-07T17:00:35.727Z,4.00
2019-04-07T17:03:05.570Z,3.73
2019-04-07T17:05:34.288Z,4.00
2019-04-07T17:08:02.756Z,4.40
2019-04-07T17:10:34.092Z,6.67
2019-04-07T17:13:05.430Z,4.77
2019-04-07T17:15:31.741Z,4.30
2019-04-07T17:18:00.260Z,3.97
2019-04-07T17:20:33.309Z,4.10
2019-04-07T17:22:58.866Z,5.03
2019-04-07T17:25:27.621Z,7.00
2019-04-07T17:28:00.430Z,4.53
2019-04-07T17:30:28.061Z,4.45
2019-04-07T17:32:56.641Z,4.40
2019-04-07T17:35:24.959Z,5.30
2019-04-07T17:37:56.565Z,6.72
2019-04-07T17:40:26.702Z,7.90
2019-04-07T17:42:56.934Z,7.33
2019-04-07T17:45:29.800Z,6.80
2019-04-07T17:48:09.802Z,7.90
2019-04-07T17:50:49.784Z,8.00
2019-04-07T17:53:26.499Z,7.92
2019-04-07T17:56:19.795Z,8.33
2019-04-07T17:58:56.687Z,9.90
2019-04-07T18:01:31.254Z,8.83
2019-04-07T18:04:17.554Z,9.47
2019-04-07T18:06:47.576Z,9.10
2019-04-07T18:09:26.660Z,10.23
2019-04-07T18:12:14.368Z,10.13
2019-04-07T18:14:57.531Z,9.63
2019-04-07T18:17:30.173Z,10.00
2019-04-07T18:20:05.122Z,8.50
2019-04-07T18:22:47.654Z,9.00
2019-04-07T18:25:17.945Z,8.98
2019-04-07T18:27:56.812Z,9.07
2019-04-07T18:30:34.757Z,9.13
2019-04-07T18:33:07.394Z,9.50
2019-04-07T18:35:37.752Z,8.97
2019-04-07T18:38:13.714Z,9.80
2019-04-07T18:40:49.575Z,9.67
2019-04-07T18:43:31.225Z,9.00
2019-04-07T18:46:01.227Z,10.00
2019-04-07T18:48:47.794Z,10.70
2019-04-07T18:51:33.582Z,10.03
2019-04-07T18:54:10.775Z,8.17
2019-04-07T18:56:44.061Z,8.77
2019-04-07T18:59:18.728Z,9.33
2019-04-07T19:02:04.394Z,11.40
2019-04-07T19:04:40.138Z,10.33
2019-04-07T19:07:10.929Z,9.20
2019-04-07T19:09:41.210Z,11.03
2019-04-07T19:12:28.076Z,10.10
2019-04-07T19:15:04.076Z,10.07
2019-04-07T19:17:41.784Z,9.90
2019-04-07T19:20:26.487Z,11.90
2019-04-07T19:23:02.442Z,9.20
2019-04-07T19:25:35.620Z,10.20
2019-04-07T19:28:14.484Z,12.40
2019-04-07T19:30:47.493Z,9.20
2019-04-07T19:33:33.411Z,11.20
2019-04-07T19:36:06.214Z,10.50
2019-04-07T19:38:39.855Z,11.10
2019-04-07T19:41:16.746Z,9.93
2019-04-07T19:46:37.031Z,10.60
2019-04-07T19:49:15.051Z,10.67
2019-04-07T19:52:05.754Z,11.93
2019-04-07T19:54:47.139Z,11.25
2019-04-07T19:57:30.299Z,12.00
2019-04-07T20:00:22.191Z,13.03
2019-04-07T20:02:51.843Z,12.50
2019-04-07T20:05:40.869Z,12.73
2019-04-07T20:08:20.688Z,13.13
2019-04-07T20:10:59.661Z,13.70
2019-04-07T20:13:46.702Z,13.80
2019-04-07T20:16:16.765Z,13.60
2019-04-07T20:18:46.692Z,14.40
2019-04-07T20:21:19.898Z,14.40
2019-04-07T20:23:50.162Z,14.97
2019-04-07T20:26:38.129Z,14.17
2019-04-07T20:29:13.713Z,14.73
2019-04-07T20:31:53.705Z,14.37
2019-04-07T20:34:42.853Z,14.37
2019-04-07T20:37:12.889Z,14.07
2019-04-07T20:39:43.449Z,15.13
2019-04-07T20:42:19.382Z,15.37
2019-04-07T20:45:03.657Z,15.30
2019-04-07T20:47:36.134Z,15.90
2019-04-07T20:50:19.913Z,15.70
2019-04-07T20:53:07.211Z,16.90
2019-04-07T20:55:44.068Z,15.20
2019-04-07T20:58:25.316Z,22.73
2019-04-07T21:01:12.305Z,16.80
2019-04-07T21:03:57.846Z,16.60
2019-04-07T21:06:44.200Z,16.63
2019-04-07T21:09:17.497Z,17.00
2019-04-07T21:11:51.315Z,17.65
2019-04-07T21:14:37.356Z,18.23
2019-04-07T21:17:09.333Z,16.60
2019-04-07T21:19:50.854Z,17.93
2019-04-07T21:22:29.983Z,16.60
2019-04-07T21:25:03.894Z,16.40
2019-04-07T21:27:35.876Z,17.83
2019-04-07T21:30:27.691Z,18.33
2019-04-07T21:33:06.565Z,18.00
2019-04-07T21:35:52.817Z,16.50
2019-04-07T21:38:30.196Z,19.30
2019-04-07T21:41:00.670Z,18.57
2019-04-07T21:43:46.757Z,18.53
2019-04-07T21:46:20.294Z,19.57
2019-04-07T21:48:55.030Z,18.37
2019-04-07T21:51:31.134Z,17.93
2019-04-07T21:54:07.711Z,20.33
2019-04-07T21:56:47.584Z,19.20
2019-04-07T21:59:21.490Z,18.47
2019-04-07T22:01:51.584Z,20.07
2019-04-07T22:04:26.434Z,18.37
2019-04-07T22:06:58.006Z,18.67
2019-04-07T22:09:30.801Z,19.70
2019-04-07T22:12:00.008Z,20.20
2019-04-07T22:14:29.041Z,18.13
2019-04-07T22:17:00.367Z,19.82
2019-04-07T22:19:28.611Z,20.60
2019-04-07T22:21:57.020Z,20.00
2019-04-07T22:24:26.231Z,19.43
2019-04-07T22:26:55.130Z,20.37
2019-04-07T22:29:24.498Z,19.07
2019-04-07T22:31:55.505Z,19.60
2019-04-07T22:34:24.828Z,18.50
2019-04-07T22:36:53.913Z,18.90
2019-04-07T22:39:22.611Z,20.60
2019-04-07T22:41:51.168Z,22.75
2019-04-07T22:44:20.352Z,20.93
2019-04-07T22:46:52.104Z,20.45
2019-04-07T22:49:19.836Z,20.53
2019-04-07T22:51:49.786Z,19.57
2019-04-07T22:54:18.819Z,19.97
2019-04-07T22:56:47.503Z,16.87
2019-04-07T22:59:16.195Z,19.73
2019-04-07T23:01:44.879Z,18.00
2019-04-07T23:04:14.035Z,18.70
2019-04-07T23:06:42.623Z,19.50
2019-04-07T23:09:10.913Z,17.53
2019-04-07T23:11:39.822Z,19.40
2019-04-07T23:14:08.319Z,18.37
2019-04-07T23:16:37.994Z,18.90
2019-04-07T23:19:06.802Z,18.50
2019-04-07T23:21:35.124Z,19.60
2019-04-07T23:24:03.548Z,19.90
2019-04-07T23:26:32.129Z,18.90
2019-04-07T23:29:00.676Z,20.80
2019-04-07T23:31:30.571Z,19.70
2019-04-07T23:33:58.996Z,20.80
2019-04-07T23:36:27.306Z,20.10
2019-04-07T23:38:55.925Z,19.65
2019-04-07T23:41:24.533Z,20.27
2019-04-07T23:43:52.845Z,19.57
2019-04-07T23:46:25.716Z,19.40
2019-04-07T23:48:51.815Z,19.10
2019-04-07T23:51:20.643Z,19.77
2019-04-07T23:54:10.754Z,20.30
2019-04-07T23:56:41.508Z,17.63
2019-04-07T23:59:10.799Z,19.40
